sensor_id;sensor_type;location;lat;lon;timestamp;P1;durP1;ratioP1;P2;durP2;ratioP2
37559;SDS011;23398;50.928;7.084;2022-12-07T00:01:37;12.57;;;9.23;;
37559;SDS011;23398;50.928;7.084;2022-12-07T00:04:04;17.27;;;12.10;;
37559;SDS011;23398;50.928;7.084;2022-12-07T00:06:35;15.93;;;11.63;;
37559;SDS011;23398;50.928;7.084;2022-12-07T00:09:06;14.98;;;9.60;;
37559;SDS011;23398;50.928;7.084;2022-12-07T00:11:35;11.88;;;9.38;;
37559;SDS011;23398;50.928;7.084;2022-12-07T00:14:01;11.32;;;8.60;;
37559;SDS011;23398;50.928;7.084;2022-12-07T00:16:30;11.73;;;9.40;;
37559;SDS011;23398;50.928;7.084;2022-12-07T00:18:57;12.73;;;9.35;;
37559;SDS011;23398;50.928;7.084;2022-12-07T00:21:23;11.75;;;9.65;;
37559;SDS011;23398;50.928;7.084;2022-12-07T00:23:51;12.63;;;9.20;;
37559;SDS011;23398;50.928;7.084;2022-12-07T00:26:30;11.93;;;8.80;;
37559;SDS011;23398;50.928;7.084;2022-12-07T00:28:59;12.07;;;8.95;;
37559;SDS011;23398;50.928;7.084;2022-12-07T00:31:27;12.32;;;8.98;;
37559;SDS011;23398;50.928;7.084;2022-12-07T00:33:54;11.93;;;9.10;;
37559;SDS011;23398;50.928;7.084;2022-12-07T00:36:21;12.13;;;8.90;;
37559;SDS011;23398;50.928;7.084;2022-12-07T00:38:48;10.57;;;8.23;;
37559;SDS011;23398;50.928;7.084;2022-12-07T00:41:14;11.18;;;8.93;;
37559;SDS011;23398;50.928;7.084;2022-12-07T00:43:43;10.50;;;8.90;;
37559;SDS011;23398;50.928;7.084;2022-12-07T00:46:09;11.63;;;9.07;;
37559;SDS011;23398;50.928;7.084;2022-12-07T00:48:36;12.77;;;8.95;;
37559;SDS011;23398;50.928;7.084;2022-12-07T00:51:02;11.43;;;9.23;;
37559;SDS011;23398;50.928;7.084;2022-12-07T00:53:28;10.65;;;8.75;;
37559;SDS011;23398;50.928;7.084;2022-12-07T00:55:54;11.55;;;8.63;;
37559;SDS011;23398;50.928;7.084;2022-12-07T00:58:21;10.07;;;8.43;;
37559;SDS011;23398;50.928;7.084;2022-12-07T01:00:47;12.35;;;9.00;;
37559;SDS011;23398;50.928;7.084;2022-12-07T01:03:14;10.52;;;8.40;;
37559;SDS011;23398;50.928;7.084;2022-12-07T01:05:40;11.43;;;8.60;;
37559;SDS011;23398;50.928;7.084;2022-12-07T01:08:17;10.60;;;8.43;;
37559;SDS011;23398;50.928;7.084;2022-12-07T01:10:43;11.10;;;8.93;;
37559;SDS011;23398;50.928;7.084;2022-12-07T01:13:09;10.18;;;8.65;;
37559;SDS011;23398;50.928;7.084;2022-12-07T01:15:38;10.52;;;8.40;;
37559;SDS011;23398;50.928;7.084;2022-12-07T01:18:04;10.93;;;8.77;;
37559;SDS011;23398;50.928;7.084;2022-12-07T01:20:30;10.07;;;8.25;;
37559;SDS011;23398;50.928;7.084;2022-12-07T01:22:56;11.70;;;8.80;;
37559;SDS011;23398;50.928;7.084;2022-12-07T01:25:21;13.45;;;8.93;;
37559;SDS011;23398;50.928;7.084;2022-12-07T01:27:47;11.65;;;8.52;;
37559;SDS011;23398;50.928;7.084;2022-12-07T01:30:12;11.02;;;8.63;;
37559;SDS011;23398;50.928;7.084;2022-12-07T01:32:38;11.23;;;8.70;;
37559;SDS011;23398;50.928;7.084;2022-12-07T01:35:04;14.05;;;9.27;;
37559;SDS011;23398;50.928;7.084;2022-12-07T01:37:33;10.48;;;8.40;;
37559;SDS011;23398;50.928;7.084;2022-12-07T01:40:03;11.60;;;8.85;;
37559;SDS011;23398;50.928;7.084;2022-12-07T01:42:32;10.63;;;9.15;;
37559;SDS011;23398;50.928;7.084;2022-12-07T01:47:43;11.95;;;9.25;;
37559;SDS011;23398;50.928;7.084;2022-12-07T01:50:11;10.43;;;8.75;;
37559;SDS011;23398;50.928;7.084;2022-12-07T01:52:37;13.23;;;10.13;;
37559;SDS011;23398;50.928;7.084;2022-12-07T01:55:06;11.40;;;9.48;;
37559;SDS011;23398;50.928;7.084;2022-12-07T01:57:34;11.70;;;9.48;;
37559;SDS011;23398;50.928;7.084;2022-12-07T02:00:04;12.57;;;9.32;;
37559;SDS011;23398;50.928;7.084;2022-12-07T02:02:36;11.98;;;9.48;;
37559;SDS011;23398;50.928;7.084;2022-12-07T02:05:06;13.90;;;9.63;;
37559;SDS011;23398;50.928;7.084;2022-12-07T02:07:32;13.57;;;9.60;;
37559;SDS011;23398;50.928;7.084;2022-12-07T02:10:20;11.50;;;9.90;;
37559;SDS011;23398;50.928;7.084;2022-12-07T02:12:51;13.40;;;9.85;;
37559;SDS011;23398;50.928;7.084;2022-12-07T02:15:22;14.23;;;10.00;;
37559;SDS011;23398;50.928;7.084;2022-12-07T02:18:01;16.25;;;10.10;;
37559;SDS011;23398;50.928;7.084;2022-12-07T02:20:39;14.68;;;10.60;;
37559;SDS011;23398;50.928;7.084;2022-12-07T02:29:08;12.65;;;9.32;;
37559;SDS011;23398;50.928;7.084;2022-12-07T02:31:39;12.93;;;9.40;;
37559;SDS011;23398;50.928;7.084;2022-12-07T02:34:32;12.63;;;9.82;;
37559;SDS011;23398;50.928;7.084;2022-12-07T02:37:12;11.23;;;8.93;;
37559;SDS011;23398;50.928;7.084;2022-12-07T02:39:48;13.73;;;9.88;;
37559;SDS011;23398;50.928;7.084;2022-12-07T02:42:23;12.23;;;9.00;;
37559;SDS011;23398;50.928;7.084;2022-12-07T02:44:53;11.55;;;9.25;;
37559;SDS011;23398;50.928;7.084;2022-12-07T02:47:19;13.25;;;9.75;;
37559;SDS011;23398;50.928;7.084;2022-12-07T02:49:48;12.23;;;9.65;;
37559;SDS011;23398;50.928;7.084;2022-12-07T02:52:14;12.93;;;9.63;;
37559;SDS011;23398;50.928;7.084;2022-12-07T02:54:40;11.38;;;9.43;;
37559;SDS011;23398;50.928;7.084;2022-12-07T02:57:15;13.38;;;9.80;;
37559;SDS011;23398;50.928;7.084;2022-12-07T03:00:09;13.00;;;8.82;;
37559;SDS011;23398;50.928;7.084;2022-12-07T03:02:59;10.75;;;8.95;;
37559;SDS011;23398;50.928;7.084;2022-12-07T03:08:37;11.55;;;9.52;;
37559;SDS011;23398;50.928;7.084;2022-12-07T03:11:11;12.45;;;9.48;;
37559;SDS011;23398;50.928;7.084;2022-12-07T03:16:43;12.43;;;9.13;;
37559;SDS011;23398;50.928;7.084;2022-12-07T03:19:15;11.55;;;8.85;;
37559;SDS011;23398;50.928;7.084;2022-12-07T03:21:47;11.77;;;9.60;;
37559;SDS011;23398;50.928;7.084;2022-12-07T03:24:18;14.45;;;9.45;;
37559;SDS011;23398;50.928;7.084;2022-12-07T03:26:52;11.65;;;9.20;;
37559;SDS011;23398;50.928;7.084;2022-12-07T03:29:31;11.32;;;9.10;;
37559;SDS011;23398;50.928;7.084;2022-12-07T03:32:14;12.10;;;9.55;;
37559;SDS011;23398;50.928;7.084;2022-12-07T03:34:46;11.02;;;9.15;;
37559;SDS011;23398;50.928;7.084;2022-12-07T03:37:19;12.90;;;9.63;;
37559;SDS011;23398;50.928;7.084;2022-12-07T03:42:37;14.45;;;9.88;;
37559;SDS011;23398;50.928;7.084;2022-12-07T03:45:03;12.60;;;10.13;;
37559;SDS011;23398;50.928;7.084;2022-12-07T03:47:34;13.70;;;10.40;;
37559;SDS011;23398;50.928;7.084;2022-12-07T03:52:54;14.02;;;10.80;;
37559;SDS011;23398;50.928;7.084;2022-12-07T03:55:28;15.43;;;10.75;;
37559;SDS011;23398;50.928;7.084;2022-12-07T03:57:58;14.15;;;10.23;;
37559;SDS011;23398;50.928;7.084;2022-12-07T04:00:28;14.00;;;10.77;;
37559;SDS011;23398;50.928;7.084;2022-12-07T04:02:54;16.50;;;11.55;;
37559;SDS011;23398;50.928;7.084;2022-12-07T04:05:20;17.40;;;11.00;;
37559;SDS011;23398;50.928;7.084;2022-12-07T04:07:46;13.98;;;10.50;;
37559;SDS011;23398;50.928;7.084;2022-12-07T04:10:11;13.18;;;10.40;;
37559;SDS011;23398;50.928;7.084;2022-12-07T04:12:37;15.57;;;11.60;;
37559;SDS011;23398;50.928;7.084;2022-12-07T04:15:03;13.75;;;9.55;;
37559;SDS011;23398;50.928;7.084;2022-12-07T04:17:29;13.23;;;10.98;;
37559;SDS011;23398;50.928;7.084;2022-12-07T04:19:55;15.63;;;10.35;;
37559;SDS011;23398;50.928;7.084;2022-12-07T04:22:20;15.68;;;11.60;;
37559;SDS011;23398;50.928;7.084;2022-12-07T04:24:46;14.43;;;10.40;;
37559;SDS011;23398;50.928;7.084;2022-12-07T04:27:11;14.18;;;11.38;;
37559;SDS011;23398;50.928;7.084;2022-12-07T04:29:37;12.68;;;10.32;;
37559;SDS011;23398;50.928;7.084;2022-12-07T04:32:03;14.32;;;10.30;;
37559;SDS011;23398;50.928;7.084;2022-12-07T04:34:28;15.30;;;10.20;;
37559;SDS011;23398;50.928;7.084;2022-12-07T04:36:54;14.10;;;10.93;;
37559;SDS011;23398;50.928;7.084;2022-12-07T04:39:21;15.05;;;11.15;;
37559;SDS011;23398;50.928;7.084;2022-12-07T04:41:57;15.55;;;11.63;;
37559;SDS011;23398;50.928;7.084;2022-12-07T04:44:23;13.52;;;10.90;;
37559;SDS011;23398;50.928;7.084;2022-12-07T04:46:50;17.02;;;12.52;;
37559;SDS011;23398;50.928;7.084;2022-12-07T04:49:16;15.98;;;11.35;;
37559;SDS011;23398;50.928;7.084;2022-12-07T04:51:42;15.98;;;11.88;;
37559;SDS011;23398;50.928;7.084;2022-12-07T04:54:08;15.52;;;11.10;;
37559;SDS011;23398;50.928;7.084;2022-12-07T04:56:34;14.35;;;10.80;;
37559;SDS011;23398;50.928;7.084;2022-12-07T04:59:00;13.73;;;10.63;;
37559;SDS011;23398;50.928;7.084;2022-12-07T05:01:26;13.85;;;10.73;;
37559;SDS011;23398;50.928;7.084;2022-12-07T05:03:52;15.68;;;11.02;;
37559;SDS011;23398;50.928;7.084;2022-12-07T05:06:18;15.18;;;10.85;;
37559;SDS011;23398;50.928;7.084;2022-12-07T05:08:44;14.27;;;10.70;;
37559;SDS011;23398;50.928;7.084;2022-12-07T05:11:10;14.93;;;10.68;;
37559;SDS011;23398;50.928;7.084;2022-12-07T05:14:02;13.80;;;10.57;;
37559;SDS011;23398;50.928;7.084;2022-12-07T05:16:29;15.18;;;11.02;;
37559;SDS011;23398;50.928;7.084;2022-12-07T05:18:55;13.75;;;10.27;;
37559;SDS011;23398;50.928;7.084;2022-12-07T05:21:20;15.15;;;10.85;;
37559;SDS011;23398;50.928;7.084;2022-12-07T05:23:46;18.42;;;11.88;;
37559;SDS011;23398;50.928;7.084;2022-12-07T05:26:11;14.73;;;11.27;;
37559;SDS011;23398;50.928;7.084;2022-12-07T05:28:37;13.50;;;10.90;;
37559;SDS011;23398;50.928;7.084;2022-12-07T05:31:03;15.10;;;10.80;;
37559;SDS011;23398;50.928;7.084;2022-12-07T05:33:28;15.93;;;11.10;;
37559;SDS011;23398;50.928;7.084;2022-12-07T05:35:54;16.67;;;10.57;;
37559;SDS011;23398;50.928;7.084;2022-12-07T05:38:20;14.55;;;10.63;;
37559;SDS011;23398;50.928;7.084;2022-12-07T05:40:45;15.45;;;11.10;;
37559;SDS011;23398;50.928;7.084;2022-12-07T05:43:11;13.15;;;10.80;;
37559;SDS011;23398;50.928;7.084;2022-12-07T05:45:36;16.27;;;10.85;;
37559;SDS011;23398;50.928;7.084;2022-12-07T05:48:02;12.45;;;10.57;;
37559;SDS011;23398;50.928;7.084;2022-12-07T05:50:28;14.32;;;11.07;;
37559;SDS011;23398;50.928;7.084;2022-12-07T05:52:53;15.43;;;11.27;;
37559;SDS011;23398;50.928;7.084;2022-12-07T05:55:19;14.05;;;11.05;;
37559;SDS011;23398;50.928;7.084;2022-12-07T05:57:45;14.63;;;10.73;;
37559;SDS011;23398;50.928;7.084;2022-12-07T06:00:31;13.07;;;11.10;;
37559;SDS011;23398;50.928;7.084;2022-12-07T06:02:57;12.07;;;9.93;;
37559;SDS011;23398;50.928;7.084;2022-12-07T06:05:22;11.65;;;9.50;;
37559;SDS011;23398;50.928;7.084;2022-12-07T06:07:48;12.70;;;9.95;;
37559;SDS011;23398;50.928;7.084;2022-12-07T06:10:13;14.63;;;10.05;;
37559;SDS011;23398;50.928;7.084;2022-12-07T06:12:39;12.00;;;9.43;;
37559;SDS011;23398;50.928;7.084;2022-12-07T06:15:07;12.63;;;9.38;;
37559;SDS011;23398;50.928;7.084;2022-12-07T06:17:33;13.57;;;9.35;;
37559;SDS011;23398;50.928;7.084;2022-12-07T06:19:59;12.93;;;8.90;;
37559;SDS011;23398;50.928;7.084;2022-12-07T06:22:24;13.27;;;10.50;;
37559;SDS011;23398;50.928;7.084;2022-12-07T06:24:50;16.95;;;11.52;;
37559;SDS011;23398;50.928;7.084;2022-12-07T06:27:15;12.07;;;9.30;;
37559;SDS011;23398;50.928;7.084;2022-12-07T06:29:41;11.73;;;8.75;;
37559;SDS011;23398;50.928;7.084;2022-12-07T06:32:06;11.38;;;8.88;;
37559;SDS011;23398;50.928;7.084;2022-12-07T06:34:32;12.60;;;8.80;;
37559;SDS011;23398;50.928;7.084;2022-12-07T06:36:58;13.73;;;9.00;;
37559;SDS011;23398;50.928;7.084;2022-12-07T06:39:25;12.07;;;8.68;;
37559;SDS011;23398;50.928;7.084;2022-12-07T06:41:52;11.88;;;8.80;;
37559;SDS011;23398;50.928;7.084;2022-12-07T06:44:19;13.18;;;8.48;;
37559;SDS011;23398;50.928;7.084;2022-12-07T06:46:45;10.77;;;8.73;;
37559;SDS011;23398;50.928;7.084;2022-12-07T06:49:11;11.63;;;8.30;;
37559;SDS011;23398;50.928;7.084;2022-12-07T06:51:37;13.35;;;8.70;;
37559;SDS011;23398;50.928;7.084;2022-12-07T06:54:06;10.75;;;8.27;;
37559;SDS011;23398;50.928;7.084;2022-12-07T06:56:32;10.48;;;8.10;;
37559;SDS011;23398;50.928;7.084;2022-12-07T06:58:58;10.88;;;8.35;;
37559;SDS011;23398;50.928;7.084;2022-12-07T07:01:23;10.75;;;8.50;;
37559;SDS011;23398;50.928;7.084;2022-12-07T07:03:49;12.70;;;8.95;;
37559;SDS011;23398;50.928;7.084;2022-12-07T07:06:14;12.52;;;8.73;;
37559;SDS011;23398;50.928;7.084;2022-12-07T07:08:40;13.05;;;8.85;;
37559;SDS011;23398;50.928;7.084;2022-12-07T07:11:06;12.20;;;8.68;;
37559;SDS011;23398;50.928;7.084;2022-12-07T07:13:32;11.55;;;8.60;;
37559;SDS011;23398;50.928;7.084;2022-12-07T07:15:58;11.70;;;9.23;;
37559;SDS011;23398;50.928;7.084;2022-12-07T07:18:24;13.90;;;10.05;;
37559;SDS011;23398;50.928;7.084;2022-12-07T07:20:50;12.43;;;9.43;;
37559;SDS011;23398;50.928;7.084;2022-12-07T07:23:16;13.07;;;9.40;;
37559;SDS011;23398;50.928;7.084;2022-12-07T07:25:42;11.75;;;9.32;;
37559;SDS011;23398;50.928;7.084;2022-12-07T07:28:08;13.68;;;9.85;;
37559;SDS011;23398;50.928;7.084;2022-12-07T07:30:34;13.23;;;9.75;;
37559;SDS011;23398;50.928;7.084;2022-12-07T07:33:00;12.13;;;9.02;;
37559;SDS011;23398;50.928;7.084;2022-12-07T07:35:27;15.45;;;9.70;;
37559;SDS011;23398;50.928;7.084;2022-12-07T07:37:54;13.90;;;10.43;;
37559;SDS011;23398;50.928;7.084;2022-12-07T07:40:20;12.25;;;8.98;;
37559;SDS011;23398;50.928;7.084;2022-12-07T07:42:49;11.10;;;9.15;;
37559;SDS011;23398;50.928;7.084;2022-12-07T07:45:15;12.50;;;9.65;;
37559;SDS011;23398;50.928;7.084;2022-12-07T07:47:41;12.85;;;9.48;;
37559;SDS011;23398;50.928;7.084;2022-12-07T07:50:07;14.07;;;10.45;;
37559;SDS011;23398;50.928;7.084;2022-12-07T07:52:33;14.55;;;10.93;;
37559;SDS011;23398;50.928;7.084;2022-12-07T07:54:59;13.48;;;10.65;;
37559;SDS011;23398;50.928;7.084;2022-12-07T07:57:24;13.05;;;9.60;;
37559;SDS011;23398;50.928;7.084;2022-12-07T07:59:50;12.77;;;9.82;;
37559;SDS011;23398;50.928;7.084;2022-12-07T08:02:17;12.45;;;9.25;;
37559;SDS011;23398;50.928;7.084;2022-12-07T08:04:44;11.98;;;9.60;;
37559;SDS011;23398;50.928;7.084;2022-12-07T08:07:11;12.80;;;9.40;;
37559;SDS011;23398;50.928;7.084;2022-12-07T08:09:37;13.27;;;10.00;;
37559;SDS011;23398;50.928;7.084;2022-12-07T08:12:03;12.95;;;10.43;;
37559;SDS011;23398;50.928;7.084;2022-12-07T08:14:29;17.08;;;9.73;;
37559;SDS011;23398;50.928;7.084;2022-12-07T08:16:55;13.60;;;9.95;;
37559;SDS011;23398;50.928;7.084;2022-12-07T08:19:21;14.63;;;9.93;;
37559;SDS011;23398;50.928;7.084;2022-12-07T08:21:46;13.15;;;10.13;;
37559;SDS011;23398;50.928;7.084;2022-12-07T08:24:12;15.05;;;10.57;;
37559;SDS011;23398;50.928;7.084;2022-12-07T08:26:40;14.52;;;9.85;;
37559;SDS011;23398;50.928;7.084;2022-12-07T08:29:06;14.32;;;10.25;;
37559;SDS011;23398;50.928;7.084;2022-12-07T08:31:31;12.40;;;9.45;;
37559;SDS011;23398;50.928;7.084;2022-12-07T08:33:57;13.77;;;9.70;;
37559;SDS011;23398;50.928;7.084;2022-12-07T08:36:23;12.68;;;9.43;;
37559;SDS011;23398;50.928;7.084;2022-12-07T08:38:48;12.30;;;9.73;;
37559;SDS011;23398;50.928;7.084;2022-12-07T08:41:14;11.90;;;9.30;;
37559;SDS011;23398;50.928;7.084;2022-12-07T08:43:40;13.65;;;10.55;;
37559;SDS011;23398;50.928;7.084;2022-12-07T08:46:13;13.43;;;10.45;;
37559;SDS011;23398;50.928;7.084;2022-12-07T08:48:44;11.77;;;9.73;;
37559;SDS011;23398;50.928;7.084;2022-12-07T08:51:17;12.32;;;9.55;;
37559;SDS011;23398;50.928;7.084;2022-12-07T08:53:43;11.52;;;9.35;;
37559;SDS011;23398;50.928;7.084;2022-12-07T08:56:09;10.98;;;9.45;;
37559;SDS011;23398;50.928;7.084;2022-12-07T08:58:35;12.80;;;10.02;;
37559;SDS011;23398;50.928;7.084;2022-12-07T09:01:03;14.45;;;9.77;;
37559;SDS011;23398;50.928;7.084;2022-12-07T09:03:29;11.50;;;9.32;;
37559;SDS011;23398;50.928;7.084;2022-12-07T09:05:55;13.38;;;9.48;;
37559;SDS011;23398;50.928;7.084;2022-12-07T09:08:22;11.55;;;8.93;;
37559;SDS011;23398;50.928;7.084;2022-12-07T09:10:51;12.02;;;9.02;;
37559;SDS011;23398;50.928;7.084;2022-12-07T09:13:16;13.85;;;9.27;;
37559;SDS011;23398;50.928;7.084;2022-12-07T09:15:42;12.35;;;9.23;;
37559;SDS011;23398;50.928;7.084;2022-12-07T09:18:08;12.95;;;8.55;;
37559;SDS011;23398;50.928;7.084;2022-12-07T09:20:33;11.40;;;7.85;;
37559;SDS011;23398;50.928;7.084;2022-12-07T09:22:59;9.13;;;8.02;;
37559;SDS011;23398;50.928;7.084;2022-12-07T09:25:24;11.55;;;8.48;;
37559;SDS011;23398;50.928;7.084;2022-12-07T09:27:57;9.18;;;7.47;;
37559;SDS011;23398;50.928;7.084;2022-12-07T09:30:23;11.30;;;7.65;;
37559;SDS011;23398;50.928;7.084;2022-12-07T09:32:50;9.73;;;8.32;;
37559;SDS011;23398;50.928;7.084;2022-12-07T09:35:18;11.40;;;8.10;;
37559;SDS011;23398;50.928;7.084;2022-12-07T09:37:44;10.35;;;7.88;;
37559;SDS011;23398;50.928;7.084;2022-12-07T09:40:11;9.20;;;7.85;;
37559;SDS011;23398;50.928;7.084;2022-12-07T09:42:38;9.82;;;7.72;;
37559;SDS011;23398;50.928;7.084;2022-12-07T09:45:11;8.50;;;6.93;;
37559;SDS011;23398;50.928;7.084;2022-12-07T09:47:44;10.30;;;7.30;;
37559;SDS011;23398;50.928;7.084;2022-12-07T09:50:20;8.55;;;7.28;;
37559;SDS011;23398;50.928;7.084;2022-12-07T09:52:49;10.07;;;7.25;;
37559;SDS011;23398;50.928;7.084;2022-12-07T09:55:18;11.57;;;6.78;;
37559;SDS011;23398;50.928;7.084;2022-12-07T09:57:48;9.35;;;7.18;;
37559;SDS011;23398;50.928;7.084;2022-12-07T10:00:18;9.65;;;6.80;;
37559;SDS011;23398;50.928;7.084;2022-12-07T10:02:47;8.82;;;6.97;;
37559;SDS011;23398;50.928;7.084;2022-12-07T10:05:16;10.88;;;6.85;;
37559;SDS011;23398;50.928;7.084;2022-12-07T10:07:45;8.68;;;6.28;;
37559;SDS011;23398;50.928;7.084;2022-12-07T10:10:15;9.82;;;7.00;;
37559;SDS011;23398;50.928;7.084;2022-12-07T10:12:58;10.10;;;6.50;;
37559;SDS011;23398;50.928;7.084;2022-12-07T10:18:20;9.65;;;6.30;;
37559;SDS011;23398;50.928;7.084;2022-12-07T10:23:40;8.25;;;6.28;;
37559;SDS011;23398;50.928;7.084;2022-12-07T10:26:21;8.57;;;6.10;;
37559;SDS011;23398;50.928;7.084;2022-12-07T10:28:50;8.90;;;5.32;;
37559;SDS011;23398;50.928;7.084;2022-12-07T10:31:17;9.23;;;6.10;;
37559;SDS011;23398;50.928;7.084;2022-12-07T10:33:55;10.45;;;6.03;;
37559;SDS011;23398;50.928;7.084;2022-12-07T10:36:27;8.15;;;5.53;;
37559;SDS011;23398;50.928;7.084;2022-12-07T10:39:10;9.88;;;5.15;;
37559;SDS011;23398;50.928;7.084;2022-12-07T10:41:57;8.10;;;5.18;;
37559;SDS011;23398;50.928;7.084;2022-12-07T10:44:28;8.27;;;4.80;;
37559;SDS011;23398;50.928;7.084;2022-12-07T11:06:37;9.32;;;5.55;;
37559;SDS011;23398;50.928;7.084;2022-12-07T11:14:37;6.72;;;5.43;;
37559;SDS011;23398;50.928;7.084;2022-12-07T11:17:20;7.88;;;5.10;;
37559;SDS011;23398;50.928;7.084;2022-12-07T11:22:51;7.18;;;4.70;;
37559;SDS011;23398;50.928;7.084;2022-12-07T11:25:32;8.63;;;5.05;;
37559;SDS011;23398;50.928;7.084;2022-12-07T11:28:14;8.52;;;5.35;;
37559;SDS011;23398;50.928;7.084;2022-12-07T11:31:12;7.90;;;5.00;;
37559;SDS011;23398;50.928;7.084;2022-12-07T11:33:51;6.88;;;5.03;;
37559;SDS011;23398;50.928;7.084;2022-12-07T11:39:16;8.18;;;4.55;;
37559;SDS011;23398;50.928;7.084;2022-12-07T11:41:48;8.77;;;5.50;;
37559;SDS011;23398;50.928;7.084;2022-12-07T11:44:24;11.73;;;5.10;;
37559;SDS011;23398;50.928;7.084;2022-12-07T11:47:04;6.97;;;4.22;;
37559;SDS011;23398;50.928;7.084;2022-12-07T11:49:43;7.22;;;4.70;;
37559;SDS011;23398;50.928;7.084;2022-12-07T11:52:30;6.00;;;4.65;;
37559;SDS011;23398;50.928;7.084;2022-12-07T11:55:05;7.38;;;4.63;;
37559;SDS011;23398;50.928;7.084;2022-12-07T11:57:44;8.32;;;4.28;;
37559;SDS011;23398;50.928;7.084;2022-12-07T12:00:14;8.95;;;4.80;;
37559;SDS011;23398;50.928;7.084;2022-12-07T12:03:03;6.60;;;4.57;;
37559;SDS011;23398;50.928;7.084;2022-12-07T12:05:40;7.28;;;4.03;;
37559;SDS011;23398;50.928;7.084;2022-12-07T12:08:21;6.50;;;3.95;;
37559;SDS011;23398;50.928;7.084;2022-12-07T12:10:57;6.38;;;4.15;;
37559;SDS011;23398;50.928;7.084;2022-12-07T12:16:22;7.80;;;4.25;;
37559;SDS011;23398;50.928;7.084;2022-12-07T12:19:03;7.65;;;3.90;;
37559;SDS011;23398;50.928;7.084;2022-12-07T12:21:41;7.53;;;4.05;;
37559;SDS011;23398;50.928;7.084;2022-12-07T12:24:16;7.72;;;5.03;;
37559;SDS011;23398;50.928;7.084;2022-12-07T12:26:51;7.55;;;3.97;;
37559;SDS011;23398;50.928;7.084;2022-12-07T12:29:28;8.45;;;4.55;;
37559;SDS011;23398;50.928;7.084;2022-12-07T12:37:38;8.73;;;4.68;;
37559;SDS011;23398;50.928;7.084;2022-12-07T12:42:46;7.28;;;4.25;;
37559;SDS011;23398;50.928;7.084;2022-12-07T12:45:26;11.07;;;4.50;;
37559;SDS011;23398;50.928;7.084;2022-12-07T12:52:58;8.13;;;4.47;;
37559;SDS011;23398;50.928;7.084;2022-12-07T13:00:47;8.02;;;5.20;;
37559;SDS011;23398;50.928;7.084;2022-12-07T13:03:34;6.05;;;4.57;;
37559;SDS011;23398;50.928;7.084;2022-12-07T13:08:50;8.15;;;5.45;;
37559;SDS011;23398;50.928;7.084;2022-12-07T13:11:32;8.00;;;4.78;;
37559;SDS011;23398;50.928;7.084;2022-12-07T13:17:02;8.40;;;5.28;;
37559;SDS011;23398;50.928;7.084;2022-12-07T13:25:09;8.38;;;5.18;;
37559;SDS011;23398;50.928;7.084;2022-12-07T13:27:42;11.10;;;6.07;;
37559;SDS011;23398;50.928;7.084;2022-12-07T13:30:16;10.02;;;5.93;;
37559;SDS011;23398;50.928;7.084;2022-12-07T13:32:53;9.43;;;5.60;;
37559;SDS011;23398;50.928;7.084;2022-12-07T13:38:01;6.65;;;4.63;;
37559;SDS011;23398;50.928;7.084;2022-12-07T13:40:29;8.38;;;4.88;;
37559;SDS011;23398;50.928;7.084;2022-12-07T13:42:58;6.97;;;4.47;;
37559;SDS011;23398;50.928;7.084;2022-12-07T13:45:30;7.53;;;4.68;;
37559;SDS011;23398;50.928;7.084;2022-12-07T13:48:32;7.75;;;4.38;;
37559;SDS011;23398;50.928;7.084;2022-12-07T13:51:16;6.63;;;4.07;;
37559;SDS011;23398;50.928;7.084;2022-12-07T13:53:51;8.35;;;4.35;;
37559;SDS011;23398;50.928;7.084;2022-12-07T13:56:18;7.65;;;4.60;;
37559;SDS011;23398;50.928;7.084;2022-12-07T13:58:47;5.70;;;4.35;;
37559;SDS011;23398;50.928;7.084;2022-12-07T14:01:12;7.22;;;4.63;;
37559;SDS011;23398;50.928;7.084;2022-12-07T14:03:38;7.72;;;4.30;;
37559;SDS011;23398;50.928;7.084;2022-12-07T14:06:18;7.13;;;4.75;;
37559;SDS011;23398;50.928;7.084;2022-12-07T14:09:09;8.55;;;4.80;;
37559;SDS011;23398;50.928;7.084;2022-12-07T14:11:46;6.88;;;4.20;;
37559;SDS011;23398;50.928;7.084;2022-12-07T14:14:15;7.25;;;4.70;;
37559;SDS011;23398;50.928;7.084;2022-12-07T14:16:43;7.80;;;4.75;;
37559;SDS011;23398;50.928;7.084;2022-12-07T14:19:40;7.82;;;4.72;;
37559;SDS011;23398;50.928;7.084;2022-12-07T14:22:16;7.25;;;4.05;;
37559;SDS011;23398;50.928;7.084;2022-12-07T14:24:45;8.70;;;4.53;;
37559;SDS011;23398;50.928;7.084;2022-12-07T14:27:17;6.05;;;4.10;;
37559;SDS011;23398;50.928;7.084;2022-12-07T14:29:47;7.53;;;4.40;;
37559;SDS011;23398;50.928;7.084;2022-12-07T14:32:18;6.20;;;4.22;;
37559;SDS011;23398;50.928;7.084;2022-12-07T14:37:37;5.80;;;4.30;;
37559;SDS011;23398;50.928;7.084;2022-12-07T14:40:04;7.13;;;4.15;;
37559;SDS011;23398;50.928;7.084;2022-12-07T14:42:31;5.68;;;3.72;;
37559;SDS011;23398;50.928;7.084;2022-12-07T14:44:59;6.03;;;3.97;;
37559;SDS011;23398;50.928;7.084;2022-12-07T14:47:25;8.02;;;4.72;;
37559;SDS011;23398;50.928;7.084;2022-12-07T14:49:51;8.65;;;5.03;;
37559;SDS011;23398;50.928;7.084;2022-12-07T14:52:18;7.25;;;4.38;;
37559;SDS011;23398;50.928;7.084;2022-12-07T14:54:46;8.88;;;4.20;;
37559;SDS011;23398;50.928;7.084;2022-12-07T14:57:12;6.32;;;4.32;;
37559;SDS011;23398;50.928;7.084;2022-12-07T14:59:38;7.57;;;4.45;;
37559;SDS011;23398;50.928;7.084;2022-12-07T15:02:04;5.88;;;4.15;;
37559;SDS011;23398;50.928;7.084;2022-12-07T15:04:31;6.80;;;4.05;;
37559;SDS011;23398;50.928;7.084;2022-12-07T15:06:58;6.75;;;3.85;;
37559;SDS011;23398;50.928;7.084;2022-12-07T15:09:26;5.47;;;4.03;;
37559;SDS011;23398;50.928;7.084;2022-12-07T15:11:51;6.65;;;4.13;;
37559;SDS011;23398;50.928;7.084;2022-12-07T15:14:17;6.72;;;4.40;;
37559;SDS011;23398;50.928;7.084;2022-12-07T15:16:43;8.52;;;4.55;;
37559;SDS011;23398;50.928;7.084;2022-12-07T15:19:10;7.22;;;4.10;;
37559;SDS011;23398;50.928;7.084;2022-12-07T15:21:41;12.32;;;5.32;;
37559;SDS011;23398;50.928;7.084;2022-12-07T15:24:09;8.88;;;4.57;;
37559;SDS011;23398;50.928;7.084;2022-12-07T15:26:35;7.70;;;4.95;;
37559;SDS011;23398;50.928;7.084;2022-12-07T15:29:01;7.85;;;5.05;;
37559;SDS011;23398;50.928;7.084;2022-12-07T15:31:27;7.13;;;4.57;;
37559;SDS011;23398;50.928;7.084;2022-12-07T15:33:53;11.77;;;5.32;;
37559;SDS011;23398;50.928;7.084;2022-12-07T15:36:22;14.50;;;5.25;;
37559;SDS011;23398;50.928;7.084;2022-12-07T15:38:49;7.68;;;4.88;;
37559;SDS011;23398;50.928;7.084;2022-12-07T15:41:15;9.32;;;4.90;;
37559;SDS011;23398;50.928;7.084;2022-12-07T15:43:41;8.45;;;4.32;;
37559;SDS011;23398;50.928;7.084;2022-12-07T15:46:32;4.57;;;3.72;;
37559;SDS011;23398;50.928;7.084;2022-12-07T15:48:59;3.78;;;2.80;;
37559;SDS011;23398;50.928;7.084;2022-12-07T15:51:25;3.85;;;2.38;;
37559;SDS011;23398;50.928;7.084;2022-12-07T15:53:51;3.85;;;2.70;;
37559;SDS011;23398;50.928;7.084;2022-12-07T15:56:17;4.25;;;2.90;;
37559;SDS011;23398;50.928;7.084;2022-12-07T15:58:42;3.45;;;2.20;;
37559;SDS011;23398;50.928;7.084;2022-12-07T16:01:12;4.28;;;1.80;;
37559;SDS011;23398;50.928;7.084;2022-12-07T16:03:38;2.85;;;1.80;;
37559;SDS011;23398;50.928;7.084;2022-12-07T16:06:04;3.20;;;2.10;;
37559;SDS011;23398;50.928;7.084;2022-12-07T16:08:30;3.17;;;2.08;;
37559;SDS011;23398;50.928;7.084;2022-12-07T16:10:55;5.55;;;2.30;;
37559;SDS011;23398;50.928;7.084;2022-12-07T16:13:21;2.63;;;2.10;;
37559;SDS011;23398;50.928;7.084;2022-12-07T16:15:46;3.08;;;2.10;;
37559;SDS011;23398;50.928;7.084;2022-12-07T16:18:12;3.90;;;2.00;;
37559;SDS011;23398;50.928;7.084;2022-12-07T16:20:38;3.38;;;2.05;;
37559;SDS011;23398;50.928;7.084;2022-12-07T16:23:04;3.92;;;2.05;;
37559;SDS011;23398;50.928;7.084;2022-12-07T16:25:30;3.38;;;2.05;;